createdAt,value
2023-04-12T00:00:12.105Z,11.03
2023-04-12T00:02:42.751Z,10.73
2023-04-12T00:05:11.704Z,11.13
2023-04-12T00:07:40.069Z,10.60
2023-04-12T00:10:09.578Z,11.03
2023-04-12T00:12:37.705Z,11.57
2023-04-12T00:15:07.942Z,12.00
2023-04-12T00:17:38.437Z,12.50
2023-04-12T00:20:12.294Z,11.23
2023-04-12T00:22:41.874Z,11.50
2023-04-12T00:25:10.429Z,12.40
2023-04-12T00:27:39.235Z,10.90
2023-04-12T00:30:08.849Z,12.00
2023-04-12T00:32:38.696Z,12.07
2023-04-12T00:35:07.758Z,12.30
2023-04-12T00:37:39.067Z,11.13
2023-04-12T00:40:10.366Z,12.33
2023-04-12T00:42:39.065Z,11.97
2023-04-12T00:45:08.792Z,10.87
2023-04-12T00:47:40.476Z,10.17
2023-04-12T00:50:11.029Z,10.40
2023-04-12T00:52:40.061Z,11.47
2023-04-12T00:55:10.936Z,11.07
2023-04-12T00:57:41.532Z,10.30
2023-04-12T01:00:13.922Z,11.03
2023-04-12T01:02:47.512Z,11.23
2023-04-12T01:05:22.256Z,10.77
2023-04-12T01:07:57.372Z,10.63
2023-04-12T01:10:36.084Z,10.50
2023-04-12T01:13:15.409Z,10.57
2023-04-12T01:15:52.554Z,9.77
2023-04-12T01:18:28.107Z,10.63
2023-04-12T01:21:04.995Z,11.40
2023-04-12T01:23:49.792Z,12.13
2023-04-12T01:26:33.442Z,13.77
2023-04-12T01:29:05.969Z,12.93
2023-04-12T01:31:37.394Z,12.00
2023-04-12T01:34:07.341Z,11.17
2023-04-12T01:36:37.883Z,12.27
2023-04-12T01:39:07.495Z,13.17
2023-04-12T01:41:41.953Z,12.47
2023-04-12T01:44:14.928Z,11.50
2023-04-12T01:46:44.572Z,11.60
2023-04-12T01:49:14.029Z,12.67
2023-04-12T01:51:51.378Z,12.70
2023-04-12T01:54:23.508Z,11.97
2023-04-12T01:56:58.064Z,13.53
2023-04-12T01:59:33.299Z,12.83
2023-04-12T02:02:03.933Z,12.90
2023-04-12T02:04:32.765Z,13.17
2023-04-12T02:07:01.244Z,13.57
2023-04-12T02:09:29.956Z,14.53
2023-04-12T02:11:58.368Z,12.97
2023-04-12T02:14:27.974Z,13.27
2023-04-12T02:16:58.515Z,12.63
2023-04-12T02:19:27.087Z,12.77
2023-04-12T02:21:55.288Z,12.73
2023-04-12T02:24:24.131Z,13.30
2023-04-12T02:26:52.255Z,12.90
2023-04-12T02:29:20.397Z,12.50
2023-04-12T02:31:51.703Z,13.43
2023-04-12T02:34:21.462Z,12.57
2023-04-12T02:36:49.818Z,13.90
2023-04-12T02:39:19.561Z,14.83
2023-04-12T02:41:47.826Z,13.27
2023-04-12T02:44:16.118Z,14.10
2023-04-12T02:46:44.383Z,14.70
2023-04-12T02:49:13.885Z,14.27
2023-04-12T02:51:42.473Z,14.07
2023-04-12T02:54:11.148Z,14.77
2023-04-12T02:56:39.419Z,13.17
2023-04-12T02:59:07.950Z,14.10
2023-04-12T03:01:39.661Z,12.90
2023-04-12T03:04:08.128Z,13.20
2023-04-12T03:06:38.159Z,14.33
2023-04-12T03:09:06.821Z,13.87
2023-04-12T03:11:35.640Z,13.50
2023-04-12T03:14:03.912Z,13.40
2023-04-12T03:16:32.622Z,15.30
2023-04-12T03:19:01.235Z,14.77
2023-04-12T03:21:29.996Z,14.87
2023-04-12T03:23:59.719Z,14.10
2023-04-12T03:26:28.459Z,14.87
2023-04-12T03:29:02.161Z,14.67
2023-04-12T03:31:31.394Z,15.73
2023-04-12T03:33:59.850Z,13.40
2023-04-12T03:36:29.904Z,14.20
2023-04-12T03:38:59.882Z,15.27
2023-04-12T03:41:29.569Z,15.77
2023-04-12T03:43:58.470Z,15.27
2023-04-12T03:46:27.507Z,16.40
2023-04-12T03:48:56.021Z,15.03
2023-04-12T03:51:27.238Z,13.73
2023-04-12T03:53:56.202Z,14.40
2023-04-12T03:56:25.921Z,14.67
2023-04-12T03:58:54.932Z,15.30
2023-04-12T04:01:23.751Z,15.13
2023-04-12T04:03:52.618Z,17.33
2023-04-12T04:06:22.079Z,15.93
2023-04-12T04:08:50.747Z,16.13
2023-04-12T04:11:19.044Z,16.60
2023-04-12T04:13:49.355Z,17.60
2023-04-12T04:16:18.245Z,15.97
2023-04-12T04:18:46.436Z,16.57
2023-04-12T04:21:15.718Z,16.93
2023-04-12T04:23:48.105Z,16.37
2023-04-12T04:26:17.433Z,19.70
2023-04-12T04:28:46.341Z,17.27
2023-04-12T04:31:17.726Z,17.93
2023-04-12T04:33:46.627Z,20.13
2023-04-12T04:36:15.968Z,17.60
2023-04-12T04:38:44.191Z,19.67
2023-04-12T04:41:12.910Z,17.87
2023-04-12T04:43:42.703Z,17.70
2023-04-12T04:46:10.927Z,17.70
2023-04-12T04:48:41.440Z,18.47
2023-04-12T04:51:09.624Z,18.93
2023-04-12T04:53:38.439Z,20.47
2023-04-12T04:56:07.935Z,19.50
2023-04-12T04:58:36.182Z,18.27
2023-04-12T05:01:05.282Z,16.90
2023-04-12T05:03:34.462Z,17.70
2023-04-12T05:06:04.728Z,16.07
2023-04-12T05:08:32.855Z,16.47
2023-04-12T05:11:01.456Z,15.97
2023-04-12T05:13:29.833Z,15.77
2023-04-12T05:15:58.035Z,15.27
2023-04-12T05:18:26.889Z,14.43
2023-04-12T05:20:55.132Z,14.87
2023-04-12T05:23:24.692Z,15.30
2023-04-12T05:25:53.901Z,13.63
2023-04-12T05:28:22.132Z,12.77
2023-04-12T05:30:50.253Z,12.60
2023-04-12T05:33:19.017Z,12.87
2023-04-12T05:35:47.219Z,12.47
2023-04-12T05:38:16.043Z,13.27
2023-04-12T05:40:46.093Z,13.67
2023-04-12T05:43:14.556Z,12.37
2023-04-12T05:45:43.219Z,12.23
2023-04-12T05:48:11.561Z,12.13
2023-04-12T05:50:39.901Z,12.20
2023-04-12T05:53:08.649Z,12.10
2023-04-12T05:55:38.335Z,12.00
2023-04-12T05:58:07.984Z,12.07
2023-04-12T06:00:37.178Z,11.53
2023-04-12T06:03:05.636Z,12.07
2023-04-12T06:05:35.679Z,12.87
2023-04-12T06:08:05.405Z,12.67
2023-04-12T06:10:34.020Z,11.77
2023-04-12T06:13:02.253Z,11.83
2023-04-12T06:15:32.214Z,11.27
2023-04-12T06:18:00.895Z,10.87
2023-04-12T06:20:29.267Z,12.20
2023-04-12T06:22:58.010Z,10.77
2023-04-12T06:25:27.136Z,10.50
2023-04-12T06:27:55.348Z,9.97
2023-04-12T06:30:23.525Z,10.40
2023-04-12T06:32:53.438Z,10.13
2023-04-12T06:35:21.743Z,10.40
2023-04-12T06:37:49.944Z,9.63
2023-04-12T06:40:18.525Z,10.10
2023-04-12T06:42:46.701Z,9.20
2023-04-12T06:45:14.928Z,8.10
2023-04-12T06:47:43.510Z,9.63
2023-04-12T06:50:13.315Z,9.23
2023-04-12T06:52:41.586Z,8.60
2023-04-12T06:55:10.734Z,9.13
2023-04-12T06:57:39.028Z,8.73
2023-04-12T07:00:08.570Z,9.40
2023-04-12T07:02:38.992Z,8.60
2023-04-12T07:05:07.885Z,8.90
2023-04-12T07:07:37.502Z,9.07
2023-04-12T07:10:07.029Z,8.50
2023-04-12T07:12:35.654Z,7.77
2023-04-12T07:15:03.815Z,7.57
2023-04-12T07:17:32.699Z,8.10
2023-04-12T07:20:01.132Z,8.60
2023-04-12T07:22:29.332Z,8.80
2023-04-12T07:24:59.141Z,7.40
2023-04-12T07:27:27.305Z,7.93
2023-04-12T07:29:55.564Z,7.50
2023-04-12T07:32:24.822Z,7.00
2023-04-12T07:34:53.637Z,7.60
2023-04-12T07:37:21.865Z,7.10
2023-04-12T07:39:50.369Z,8.17
2023-04-12T07:42:20.168Z,8.40
2023-04-12T07:44:48.370Z,7.07
2023-04-12T07:47:17.512Z,7.67
2023-04-12T07:49:45.621Z,7.60
2023-04-12T07:52:13.824Z,7.00
2023-04-12T07:54:42.979Z,7.70
2023-04-12T07:57:11.294Z,6.77
2023-04-12T07:59:40.799Z,7.07
2023-04-12T08:02:09.602Z,6.33
2023-04-12T08:04:38.302Z,7.20
2023-04-12T08:07:06.562Z,6.37
2023-04-12T08:09:35.251Z,6.70
2023-04-12T08:12:04.209Z,6.13
2023-04-12T08:14:32.337Z,6.47
2023-04-12T08:17:01.912Z,6.03
2023-04-12T08:19:30.188Z,5.77
2023-04-12T08:21:58.652Z,7.20
2023-04-12T08:24:26.783Z,6.37
2023-04-12T08:26:55.970Z,6.33
2023-04-12T08:29:24.230Z,5.70
2023-04-12T08:31:53.135Z,5.97
2023-04-12T08:34:24.626Z,6.17
2023-04-12T08:36:52.825Z,6.20
2023-04-12T08:39:21.460Z,5.87
2023-04-12T08:41:50.605Z,5.97
2023-04-12T08:44:19.672Z,5.53
2023-04-12T08:46:48.731Z,5.40
2023-04-12T08:49:18.685Z,5.70
2023-04-12T08:51:48.401Z,6.53
2023-04-12T08:54:16.611Z,5.43
2023-04-12T08:56:46.204Z,5.33
2023-04-12T08:59:15.501Z,5.43
2023-04-12T09:01:44.307Z,4.87
2023-04-12T09:04:12.630Z,6.00
2023-04-12T09:06:41.621Z,5.50
2023-04-12T09:09:11.285Z,5.30
2023-04-12T09:11:40.263Z,5.03
2023-04-12T09:14:23.025Z,5.27
2023-04-12T09:16:52.494Z,6.60
2023-04-12T09:19:33.650Z,6.10
2023-04-12T09:22:02.256Z,5.40
2023-04-12T09:24:32.048Z,5.27
2023-04-12T09:27:04.800Z,5.03
2023-04-12T09:29:34.313Z,5.60
2023-04-12T09:32:04.312Z,5.00
2023-04-12T09:34:33.982Z,5.20
2023-04-12T09:37:14.849Z,5.03
2023-04-12T09:39:44.902Z,4.85
2023-04-12T09:42:29.813Z,4.78
2023-04-12T09:45:02.932Z,5.10
2023-04-12T09:47:41.490Z,4.78
2023-04-12T09:50:10.876Z,5.55
2023-04-12T09:52:40.373Z,5.60
2023-04-12T09:55:11.710Z,6.15
2023-04-12T09:57:43.077Z,5.80
2023-04-12T10:00:17.682Z,5.40
2023-04-12T10:02:50.365Z,6.33
2023-04-12T10:05:22.820Z,5.53
2023-04-12T10:07:51.658Z,5.97
2023-04-12T10:10:21.808Z,5.77
2023-04-12T10:12:51.024Z,4.93
2023-04-12T10:15:21.998Z,5.17
2023-04-12T10:17:52.492Z,6.90
2023-04-12T10:20:23.289Z,5.37
2023-04-12T10:22:54.666Z,5.37
2023-04-12T10:25:26.925Z,5.37
2023-04-12T10:27:55.380Z,4.70
2023-04-12T10:30:25.404Z,5.37
2023-04-12T10:33:18.302Z,4.83
2023-04-12T10:35:55.303Z,5.13
2023-04-12T10:38:26.841Z,4.50
2023-04-12T10:41:26.711Z,4.53
2023-04-12T10:44:27.409Z,4.90
2023-04-12T10:46:55.887Z,4.20
2023-04-12T10:49:24.140Z,4.80
2023-04-12T10:52:14.789Z,4.32
2023-04-12T10:54:43.275Z,4.90
2023-04-12T10:57:45.389Z,3.97
2023-04-12T11:00:14.841Z,4.43
2023-04-12T11:03:13.333Z,4.72
2023-04-12T11:06:12.486Z,4.22
2023-04-12T11:08:49.400Z,4.20
2023-04-12T11:11:22.781Z,5.05
2023-04-12T11:13:57.476Z,4.65
2023-04-12T11:16:28.099Z,4.40
2023-04-12T11:18:56.860Z,5.03
2023-04-12T11:21:26.692Z,4.35
2023-04-12T11:23:56.551Z,4.40
2023-04-12T11:26:25.519Z,6.22
2023-04-12T11:28:56.494Z,5.30
2023-04-12T11:31:25.029Z,5.18
2023-04-12T11:33:53.269Z,6.28
2023-04-12T11:36:21.444Z,5.60
2023-04-12T11:38:50.371Z,5.43
2023-04-12T11:41:18.713Z,5.07
2023-04-12T11:43:47.349Z,5.68
2023-04-12T11:46:18.412Z,4.97
2023-04-12T11:48:47.531Z,4.60
2023-04-12T11:51:30.636Z,4.85
2023-04-12T11:54:01.236Z,5.32
2023-04-12T11:56:31.910Z,5.70
2023-04-12T11:59:00.524Z,5.15
2023-04-12T12:01:31.874Z,5.28
2023-04-12T12:04:01.394Z,6.55
2023-04-12T12:06:31.503Z,5.37
2023-04-12T12:09:00.703Z,5.27
2023-04-12T12:11:29.342Z,4.87
2023-04-12T12:13:58.267Z,5.43
2023-04-12T12:16:28.781Z,5.60
2023-04-12T12:18:58.714Z,5.23
2023-04-12T12:21:28.588Z,5.72
2023-04-12T12:23:58.687Z,5.63
2023-04-12T12:26:28.813Z,5.77
2023-04-12T12:29:00.256Z,5.53
2023-04-12T12:31:29.943Z,4.93
2023-04-12T12:34:01.107Z,5.17
2023-04-12T12:36:33.524Z,5.10
2023-04-12T12:39:09.392Z,4.63
2023-04-12T12:41:38.480Z,5.07
2023-04-12T12:44:08.077Z,4.47
2023-04-12T12:46:51.999Z,5.78
2023-04-12T12:49:25.492Z,5.20
2023-04-12T12:51:53.775Z,5.20
2023-04-12T12:54:32.215Z,5.67
2023-04-12T12:57:07.647Z,5.43
2023-04-12T12:59:35.925Z,5.30
2023-04-12T13:02:04.285Z,5.57
2023-04-12T13:04:34.720Z,5.70
2023-04-12T13:07:03.010Z,5.40
2023-04-12T13:09:33.371Z,5.43
2023-04-12T13:12:02.944Z,5.73
2023-04-12T13:14:31.346Z,5.50
2023-04-12T13:16:59.845Z,5.77
2023-04-12T13:19:28.351Z,5.50
2023-04-12T13:21:58.047Z,5.63
2023-04-12T13:24:26.913Z,6.47
2023-04-12T13:26:55.436Z,7.03
2023-04-12T13:29:23.739Z,6.57
2023-04-12T13:31:51.968Z,6.23
2023-04-12T13:34:20.266Z,6.47
2023-04-12T13:36:48.453Z,7.10
2023-04-12T13:39:17.988Z,6.80
2023-04-12T13:41:46.235Z,7.27
2023-04-12T13:44:14.589Z,7.00
2023-04-12T13:46:43.311Z,6.53
2023-04-12T13:49:11.915Z,7.97
2023-04-12T13:51:40.275Z,7.00
2023-04-12T13:54:08.645Z,7.70
2023-04-12T13:56:39.216Z,7.90
2023-04-12T13:59:07.972Z,7.40
2023-04-12T14:01:36.660Z,8.03
2023-04-12T14:04:05.458Z,7.67
2023-04-12T14:06:33.776Z,7.50
2023-04-12T14:09:02.570Z,6.90
2023-04-12T14:11:30.740Z,7.50
2023-04-12T14:14:00.394Z,7.90
2023-04-12T14:16:28.857Z,8.27
2023-04-12T14:18:57.520Z,6.93
2023-04-12T14:21:29.151Z,7.40
2023-04-12T14:23:57.907Z,8.13
2023-04-12T14:26:26.464Z,7.33
2023-04-12T14:28:54.736Z,7.43
2023-04-12T14:31:24.781Z,7.30
2023-04-12T14:33:53.393Z,7.83
2023-04-12T14:36:21.677Z,7.27
2023-04-12T14:38:51.198Z,7.47
2023-04-12T14:41:19.363Z,7.63
2023-04-12T14:43:47.691Z,7.37
2023-04-12T14:46:17.714Z,7.87
2023-04-12T14:48:47.321Z,7.40
2023-04-12T14:51:16.019Z,7.50
2023-04-12T14:53:44.170Z,7.57
2023-04-12T14:56:23.926Z,8.30
2023-04-12T14:58:54.294Z,8.27
2023-04-12T15:01:23.627Z,8.00
2023-04-12T15:03:54.043Z,7.03
2023-04-12T15:06:26.160Z,7.87
2023-04-12T15:08:55.353Z,6.90
2023-04-12T15:11:26.786Z,7.93
2023-04-12T15:13:56.462Z,7.80
2023-04-12T15:16:24.857Z,8.33
2023-04-12T15:18:54.425Z,7.77
2023-04-12T15:21:22.929Z,8.10
2023-04-12T15:23:51.345Z,8.20
2023-04-12T15:26:19.471Z,8.47
2023-04-12T15:28:47.885Z,7.67
2023-04-12T15:31:16.165Z,7.97
2023-04-12T15:33:46.689Z,7.77
2023-04-12T15:36:17.069Z,8.33
2023-04-12T15:38:45.608Z,8.57
2023-04-12T15:41:13.745Z,7.67
2023-04-12T15:43:45.477Z,7.30
2023-04-12T15:46:15.268Z,8.37
2023-04-12T15:48:43.880Z,7.63
2023-04-12T15:51:12.502Z,7.83
2023-04-12T15:53:43.509Z,8.37
2023-04-12T15:56:15.465Z,8.23
2023-04-12T15:58:44.723Z,8.27
2023-04-12T16:01:13.007Z,8.00
2023-04-12T16:03:42.911Z,8.47
2023-04-12T16:06:12.285Z,8.60
2023-04-12T16:08:42.013Z,8.77
2023-04-12T16:11:12.216Z,8.30
2023-04-12T16:13:42.593Z,8.30
2023-04-12T16:16:12.888Z,7.67
2023-04-12T16:18:42.470Z,8.20
2023-04-12T16:21:12.810Z,8.40
2023-04-12T16:23:43.067Z,7.80
2023-04-12T16:26:12.347Z,8.70
2023-04-12T16:28:42.937Z,8.60
2023-04-12T16:31:11.941Z,9.17
2023-04-12T16:33:40.862Z,8.67
2023-04-12T16:36:09.906Z,8.50
2023-04-12T16:38:38.376Z,8.77
2023-04-12T16:41:08.728Z,9.53
2023-04-12T16:43:36.834Z,8.83
2023-04-12T16:46:06.135Z,9.93
2023-04-12T16:48:35.539Z,8.17
2023-04-12T16:51:04.860Z,8.60
2023-04-12T16:53:33.591Z,9.00
2023-04-12T16:56:02.817Z,8.50
2023-04-12T16:58:33.045Z,8.33
2023-04-12T17:01:02.097Z,9.20
2023-04-12T17:03:30.508Z,9.13
2023-04-12T17:05:59.252Z,8.97
2023-04-12T17:08:27.723Z,8.60
2023-04-12T17:10:55.996Z,9.40
2023-04-12T17:13:24.590Z,9.27
2023-04-12T17:15:54.502Z,9.00
2023-04-12T17:18:22.710Z,8.30
2023-04-12T17:20:51.279Z,8.90
2023-04-12T17:23:19.730Z,9.37
2023-04-12T17:25:47.927Z,8.20
2023-04-12T17:28:16.382Z,9.27
2023-04-12T17:30:44.839Z,8.53
2023-04-12T17:33:17.884Z,9.03
2023-04-12T17:35:46.953Z,8.43
2023-04-12T17:38:15.169Z,8.77
2023-04-12T17:40:43.434Z,8.67
2023-04-12T17:43:12.076Z,9.10
2023-04-12T17:45:40.437Z,8.33
2023-04-12T17:48:11.072Z,7.70
2023-04-12T17:50:42.093Z,8.80
2023-04-12T17:53:10.267Z,9.07
2023-04-12T17:55:38.811Z,9.10
2023-04-12T17:58:07.558Z,8.53
2023-04-12T18:00:35.952Z,9.53
2023-04-12T18:03:04.184Z,8.63
2023-04-12T18:05:33.204Z,9.33
2023-04-12T18:08:03.349Z,10.13
2023-04-12T18:10:31.599Z,9.13
2023-04-12T18:13:00.291Z,9.10
2023-04-12T18:15:28.947Z,8.63
2023-04-12T18:17:57.369Z,9.60
2023-04-12T18:20:26.057Z,8.97
2023-04-12T18:22:54.415Z,9.43
2023-04-12T18:25:24.126Z,9.43
2023-04-12T18:27:53.043Z,8.97
2023-04-12T18:30:21.603Z,10.40
2023-04-12T18:32:49.837Z,10.07
2023-04-12T18:35:18.654Z,10.20
2023-04-12T18:37:47.164Z,9.50
2023-04-12T18:40:16.045Z,10.07
2023-04-12T18:42:46.690Z,9.13
2023-04-12T18:45:16.005Z,9.43
2023-04-12T18:47:44.777Z,11.03
2023-04-12T18:50:14.132Z,9.80
2023-04-12T18:52:42.811Z,10.50
2023-04-12T18:55:11.597Z,10.70
2023-04-12T18:57:40.451Z,10.93
2023-04-12T19:00:14.549Z,9.60
2023-04-12T19:02:43.340Z,10.43
2023-04-12T19:05:12.326Z,10.93
2023-04-12T19:07:40.759Z,10.43
2023-04-12T19:10:10.205Z,9.70
2023-04-12T19:12:38.729Z,10.50
2023-04-12T19:15:10.579Z,10.80
2023-04-12T19:17:39.680Z,10.80
2023-04-12T19:20:09.410Z,10.00
2023-04-12T19:22:37.682Z,11.33
2023-04-12T19:25:07.304Z,11.27
2023-04-12T19:27:35.879Z,10.17
2023-04-12T19:30:04.505Z,10.40
2023-04-12T19:32:34.169Z,11.50
2023-04-12T19:35:02.436Z,11.17
2023-04-12T19:37:34.085Z,10.37
2023-04-12T19:40:02.774Z,9.67
2023-04-12T19:42:31.065Z,11.23
2023-04-12T19:45:00.636Z,10.60
2023-04-12T19:47:29.668Z,9.83
2023-04-12T19:49:59.543Z,10.40
2023-04-12T19:52:28.469Z,9.97
2023-04-12T19:54:57.458Z,10.27
2023-04-12T19:57:27.632Z,9.80
2023-04-12T19:59:56.085Z,9.63
2023-04-12T20:02:24.691Z,10.17
2023-04-12T20:04:53.447Z,10.33
2023-04-12T20:07:23.002Z,10.80
2023-04-12T20:09:51.857Z,9.03
2023-04-12T20:12:19.997Z,10.33
2023-04-12T20:14:48.225Z,9.87
2023-04-12T20:17:16.683Z,9.60
2023-04-12T20:19:44.817Z,13.40
2023-04-12T20:22:13.541Z,9.80
2023-04-12T20:24:43.164Z,10.43
2023-04-12T20:27:12.719Z,11.73
2023-04-12T20:29:41.964Z,10.17
2023-04-12T20:32:12.428Z,9.83
2023-04-12T20:34:42.069Z,9.80
2023-04-12T20:37:10.263Z,10.30
2023-04-12T20:39:39.732Z,10.10
2023-04-12T20:42:10.458Z,9.80
2023-04-12T20:44:39.028Z,9.60
2023-04-12T20:47:08.064Z,9.77
2023-04-12T20:49:36.491Z,9.33
2023-04-12T20:52:04.684Z,9.30
2023-04-12T20:54:34.048Z,9.97
2023-04-12T20:57:04.237Z,9.47
2023-04-12T20:59:35.957Z,9.03
2023-04-12T21:02:04.548Z,9.73
2023-04-12T21:04:36.296Z,6.87
2023-04-12T21:07:06.077Z,8.73
2023-04-12T21:09:34.315Z,9.30
2023-04-12T21:12:06.180Z,9.37
2023-04-12T21:14:37.730Z,8.97
2023-04-12T21:17:07.350Z,8.47
2023-04-12T21:19:39.764Z,9.10
2023-04-12T21:22:08.438Z,8.93
2023-04-12T21:24:38.374Z,8.60
2023-04-12T21:27:08.512Z,7.60
2023-04-12T21:29:41.329Z,7.63
2023-04-12T21:32:10.281Z,7.17
2023-04-12T21:34:39.228Z,7.40
2023-04-12T21:37:07.776Z,7.60
2023-04-12T21:39:36.183Z,8.03
2023-04-12T21:42:04.692Z,7.73
2023-04-12T21:44:32.984Z,7.50
2023-04-12T21:47:02.848Z,7.70
2023-04-12T21:49:31.616Z,7.33
2023-04-12T21:51:59.753Z,7.07
2023-04-12T21:54:29.293Z,7.30
2023-04-12T21:56:58.309Z,7.77
2023-04-12T21:59:26.855Z,7.00
2023-04-12T22:01:55.265Z,7.87
2023-04-12T22:04:24.856Z,7.37
2023-04-12T22:06:53.162Z,7.00
2023-04-12T22:09:21.534Z,7.17
2023-04-12T22:11:50.247Z,7.70
2023-04-12T22:14:18.487Z,6.90
2023-04-12T22:16:47.321Z,6.77
2023-04-12T22:19:16.401Z,6.50
2023-04-12T22:21:48.356Z,7.20
2023-04-12T22:24:17.781Z,6.80
2023-04-12T22:26:46.418Z,7.43
2023-04-12T22:29:17.787Z,7.20
2023-04-12T22:31:47.161Z,7.13
2023-04-12T22:34:15.357Z,7.73
2023-04-12T22:36:46.717Z,7.40
2023-04-12T22:39:15.794Z,7.13
2023-04-12T22:41:49.107Z,6.93
2023-04-12T22:44:22.167Z,6.93
2023-04-12T22:46:50.931Z,7.70
2023-04-12T22:49:19.963Z,7.30
2023-04-12T22:51:49.644Z,7.67
2023-04-12T22:54:18.176Z,7.37
2023-04-12T22:56:46.814Z,8.03
2023-04-12T22:59:16.835Z,8.67
2023-04-12T23:01:46.379Z,8.63
2023-04-12T23:04:15.795Z,8.30
2023-04-12T23:06:45.534Z,9.73
2023-04-12T23:09:16.123Z,9.27
2023-04-12T23:11:44.708Z,10.67
2023-04-12T23:14:12.960Z,10.73
2023-04-12T23:16:44.532Z,11.13
2023-04-12T23:19:13.116Z,10.23
2023-04-12T23:21:41.333Z,10.90
2023-04-12T23:24:11.736Z,11.20
2023-04-12T23:26:41.390Z,10.53
2023-04-12T23:29:09.727Z,9.97
2023-04-12T23:31:38.148Z,10.23
2023-04-12T23:34:06.486Z,10.67
2023-04-12T23:36:35.587Z,10.70
2023-04-12T23:39:09.269Z,10.40
2023-04-12T23:41:38.381Z,10.07
2023-04-12T23:44:08.100Z,10.63
2023-04-12T23:46:36.862Z,13.80
2023-04-12T23:49:05.073Z,11.30
2023-04-12T23:51:33.529Z,11.97
2023-04-12T23:54:02.198Z,11.10
2023-04-12T23:56:30.869Z,10.57
2023-04-12T23:58:59.058Z,11.17
